Parrish, Illinois
Current Conditions -  °F | °C
As of 5:15 PM on Friday 19 Dec 2014 (Local Time) from KHSB Reporting Station
Broken Clouds Broken Clouds  
Wind Chill: 36°   Ceiling: 4000
Heat Index: 36°   Visibility: 10mi
Dew Point: 29°   Wind: 0mph
Humidity: 76%   Direction: NA
Pressure: 30.31"   Gusts: NA
Location:  37.8635°N, 88.7619°W
Report Text: KHSB 192315Z AUTO 00000KT 10SM BKN040 02/M02 A3031 RMK AO2 T00201018
Loading
Personal Weather Stations






























Interactive Weather Map New forecast layout! Learn more

10-Day Weather Forecast

Advertisements
Track Severe Weather on mobile